sensor_id;sensor_type;location;lat;lon;timestamp;pressure;altitude;pressure_sealevel;temperature;humidity
62122;BME280;48108;47.532;19.084;2023-05-11T03:58:56;100480.16;;;12.38;71.58
62122;BME280;48108;47.532;19.084;2023-05-11T04:02:01;100486.31;;;12.32;71.82
62122;BME280;48108;47.532;19.084;2023-05-11T04:05:11;100484.72;;;12.23;72.10
62122;BME280;48108;47.532;19.084;2023-05-11T04:08:14;100481.37;;;12.21;73.18
62122;BME280;48108;47.532;19.084;2023-05-11T04:11:17;100490.00;;;12.16;73.27
62122;BME280;48108;47.532;19.084;2023-05-11T04:14:20;100481.53;;;12.19;73.32
62122;BME280;48108;47.532;19.084;2023-05-11T04:17:23;100491.97;;;12.08;73.86
62122;BME280;48108;47.532;19.084;2023-05-11T04:20:26;100494.94;;;11.98;76.42
62122;BME280;48108;47.532;19.084;2023-05-11T04:23:28;100498.16;;;11.93;76.03
62122;BME280;48108;47.532;19.084;2023-05-11T04:26:32;100500.97;;;11.85;76.72
62122;BME280;48108;47.532;19.084;2023-05-11T04:29:35;100496.28;;;11.79;77.50
62122;BME280;48108;47.532;19.084;2023-05-11T04:32:38;100512.72;;;11.84;77.21
62122;BME280;48108;47.532;19.084;2023-05-11T04:35:43;100514.09;;;11.88;77.26
62122;BME280;48108;47.532;19.084;2023-05-11T04:38:45;100505.72;;;11.98;76.34
62122;BME280;48108;47.532;19.084;2023-05-11T04:41:49;100508.91;;;12.16;74.20
62122;BME280;48108;47.532;19.084;2023-05-11T04:44:52;100516.53;;;12.28;72.62
62122;BME280;48108;47.532;19.084;2023-05-11T04:47:55;100509.03;;;12.38;69.05
62122;BME280;48108;47.532;19.084;2023-05-11T04:51:02;100515.78;;;12.48;69.49
62122;BME280;48108;47.532;19.084;2023-05-11T04:54:06;100513.28;;;12.62;66.23
62122;BME280;48108;47.532;19.084;2023-05-11T04:57:09;100524.53;;;12.80;65.16
62122;BME280;48108;47.532;19.084;2023-05-11T05:00:12;100516.69;;;12.85;63.32
62122;BME280;48108;47.532;19.084;2023-05-11T05:03:15;100514.16;;;12.99;62.47
62122;BME280;48108;47.532;19.084;2023-05-11T05:06:18;100526.94;;;12.90;60.24
62122;BME280;48108;47.532;19.084;2023-05-11T05:09:20;100523.50;;;12.96;60.82
62122;BME280;48108;47.532;19.084;2023-05-11T05:12:25;100525.31;;;12.96;59.58
62122;BME280;48108;47.532;19.084;2023-05-11T05:15:28;100522.28;;;12.84;59.95
62122;BME280;48108;47.532;19.084;2023-05-11T05:18:32;100518.97;;;12.67;62.19
62122;BME280;48108;47.532;19.084;2023-05-11T05:21:35;100524.63;;;12.72;60.08
62122;BME280;48108;47.532;19.084;2023-05-11T05:24:39;100522.84;;;12.79;60.49
62122;BME280;48108;47.532;19.084;2023-05-11T05:27:41;100526.75;;;12.91;59.89
62122;BME280;48108;47.532;19.084;2023-05-11T05:30:45;100525.94;;;12.76;59.79
62122;BME280;48108;47.532;19.084;2023-05-11T05:33:48;100523.69;;;12.80;59.65
62122;BME280;48108;47.532;19.084;2023-05-11T05:36:51;100534.69;;;12.78;59.06
62122;BME280;48108;47.532;19.084;2023-05-11T05:39:55;100523.25;;;12.76;60.10
62122;BME280;48108;47.532;19.084;2023-05-11T05:42:58;100527.22;;;12.80;60.08
62122;BME280;48108;47.532;19.084;2023-05-11T05:46:00;100534.03;;;12.76;60.05
62122;BME280;48108;47.532;19.084;2023-05-11T05:49:04;100534.81;;;12.70;59.27
62122;BME280;48108;47.532;19.084;2023-05-11T05:52:08;100539.97;;;12.86;59.21
62122;BME280;48108;47.532;19.084;2023-05-11T05:55:12;100541.47;;;12.89;59.23
62122;BME280;48108;47.532;19.084;2023-05-11T05:58:15;100542.03;;;12.99;59.03
62122;BME280;48108;47.532;19.084;2023-05-11T06:01:18;100536.25;;;13.02;58.33
62122;BME280;48108;47.532;19.084;2023-05-11T06:04:21;100540.28;;;13.13;59.53
62122;BME280;48108;47.532;19.084;2023-05-11T06:07:24;100547.38;;;13.29;58.42
62122;BME280;48108;47.532;19.084;2023-05-11T06:10:27;100548.16;;;13.44;57.69
62122;BME280;48108;47.532;19.084;2023-05-11T06:13:30;100549.69;;;13.53;57.45
62122;BME280;48108;47.532;19.084;2023-05-11T06:16:33;100544.44;;;13.67;56.76
62122;BME280;48108;47.532;19.084;2023-05-11T06:19:36;100542.44;;;14.03;56.33
62122;BME280;48108;47.532;19.084;2023-05-11T06:22:40;100542.13;;;14.13;55.66
62122;BME280;48108;47.532;19.084;2023-05-11T06:25:43;100554.88;;;14.19;55.76
62122;BME280;48108;47.532;19.084;2023-05-11T06:28:46;100547.88;;;14.32;55.87
62122;BME280;48108;47.532;19.084;2023-05-11T06:31:49;100547.75;;;14.46;55.42
62122;BME280;48108;47.532;19.084;2023-05-11T06:34:56;100543.56;;;14.44;55.15
62122;BME280;48108;47.532;19.084;2023-05-11T06:37:59;100543.50;;;14.65;55.17
62122;BME280;48108;47.532;19.084;2023-05-11T06:41:02;100541.03;;;14.70;55.22
62122;BME280;48108;47.532;19.084;2023-05-11T06:44:05;100541.91;;;14.78;54.93
62122;BME280;48108;47.532;19.084;2023-05-11T06:47:09;100550.72;;;14.93;55.30
62122;BME280;48108;47.532;19.084;2023-05-11T06:50:12;100543.59;;;14.85;55.68
62122;BME280;48108;47.532;19.084;2023-05-11T06:53:15;100539.97;;;15.13;55.07
62122;BME280;48108;47.532;19.084;2023-05-11T06:56:19;100537.44;;;15.18;55.31
62122;BME280;48108;47.532;19.084;2023-05-11T06:59:23;100540.88;;;15.40;54.14
62122;BME280;48108;47.532;19.084;2023-05-11T07:02:26;100540.81;;;15.27;54.15
62122;BME280;48108;47.532;19.084;2023-05-11T07:05:29;100536.72;;;15.51;53.58
62122;BME280;48108;47.532;19.084;2023-05-11T07:08:32;100526.31;;;15.87;51.78
62122;BME280;48108;47.532;19.084;2023-05-11T07:11:36;100525.69;;;16.05;51.66
62122;BME280;48108;47.532;19.084;2023-05-11T07:14:38;100536.78;;;15.77;51.65
62122;BME280;48108;47.532;19.084;2023-05-11T07:17:41;100531.56;;;15.89;51.95
62122;BME280;48108;47.532;19.084;2023-05-11T07:20:44;100526.72;;;15.91;51.52
62122;BME280;48108;47.532;19.084;2023-05-11T07:23:51;100533.44;;;15.95;50.32
62122;BME280;48108;47.532;19.084;2023-05-11T07:26:54;100521.72;;;16.01;49.02
62122;BME280;48108;47.532;19.084;2023-05-11T07:29:58;100517.31;;;16.27;49.15
62122;BME280;48108;47.532;19.084;2023-05-11T07:33:01;100515.37;;;16.41;49.21
62122;BME280;48108;47.532;19.084;2023-05-11T07:36:05;100515.16;;;16.55;48.85
62122;BME280;48108;47.532;19.084;2023-05-11T07:39:08;100519.03;;;16.86;47.13
62122;BME280;48108;47.532;19.084;2023-05-11T07:42:12;100514.69;;;16.78;47.38
62122;BME280;48108;47.532;19.084;2023-05-11T07:45:15;100506.62;;;17.04;47.01
62122;BME280;48108;47.532;19.084;2023-05-11T07:48:17;100504.87;;;17.48;47.00
62122;BME280;48108;47.532;19.084;2023-05-11T07:51:20;100510.72;;;17.51;46.17
62122;BME280;48108;47.532;19.084;2023-05-11T07:54:23;100508.63;;;17.53;45.27
62122;BME280;48108;47.532;19.084;2023-05-11T07:57:26;100513.62;;;17.88;45.47
62122;BME280;48108;47.532;19.084;2023-05-11T08:00:29;100511.37;;;18.03;44.57
62122;BME280;48108;47.532;19.084;2023-05-11T08:03:32;100511.09;;;18.11;43.58
62122;BME280;48108;47.532;19.084;2023-05-11T08:06:35;100503.59;;;18.07;43.92
62122;BME280;48108;47.532;19.084;2023-05-11T08:09:38;100506.94;;;18.09;43.57
62122;BME280;48108;47.532;19.084;2023-05-11T08:12:40;100505.41;;;18.13;43.45
62122;BME280;48108;47.532;19.084;2023-05-11T08:15:43;100505.28;;;18.08;44.03
62122;BME280;48108;47.532;19.084;2023-05-11T08:18:46;100497.94;;;18.27;43.01
62122;BME280;48108;47.532;19.084;2023-05-11T08:21:49;100503.28;;;18.40;42.32
62122;BME280;48108;47.532;19.084;2023-05-11T08:24:52;100497.13;;;18.45;42.19
62122;BME280;48108;47.532;19.084;2023-05-11T08:27:55;100500.00;;;18.50;41.89
62122;BME280;48108;47.532;19.084;2023-05-11T08:30:58;100491.59;;;18.33;42.18
62122;BME280;48108;47.532;19.084;2023-05-11T08:34:02;100482.59;;;18.88;40.93
62122;BME280;48108;47.532;19.084;2023-05-11T08:37:04;100490.72;;;19.06;40.31
62122;BME280;48108;47.532;19.084;2023-05-11T08:40:09;100490.31;;;18.91;40.14
62122;BME280;48108;47.532;19.084;2023-05-11T08:43:17;100489.16;;;19.29;40.16
62122;BME280;48108;47.532;19.084;2023-05-11T08:46:22;100488.41;;;19.21;40.31
62122;BME280;48108;47.532;19.084;2023-05-11T08:49:26;100486.19;;;19.30;38.93
62122;BME280;48108;47.532;19.084;2023-05-11T08:52:29;100476.31;;;19.17;37.82
62122;BME280;48108;47.532;19.084;2023-05-11T08:55:33;100466.53;;;19.10;38.19
62122;BME280;48108;47.532;19.084;2023-05-11T08:58:37;100475.19;;;19.37;38.69
62122;BME280;48108;47.532;19.084;2023-05-11T09:01:40;100472.78;;;19.29;39.37
62122;BME280;48108;47.532;19.084;2023-05-11T09:04:44;100463.66;;;19.35;40.26
62122;BME280;48108;47.532;19.084;2023-05-11T09:07:52;100472.25;;;19.62;38.92
62122;BME280;48108;47.532;19.084;2023-05-11T09:10:57;100461.78;;;19.47;39.07
62122;BME280;48108;47.532;19.084;2023-05-11T09:14:00;100443.47;;;19.89;39.40
62122;BME280;48108;47.532;19.084;2023-05-11T09:17:04;100447.59;;;20.15;38.97
62122;BME280;48108;47.532;19.084;2023-05-11T09:20:07;100452.06;;;20.57;37.46
62122;BME280;48108;47.532;19.084;2023-05-11T09:23:18;100441.97;;;20.57;37.23
62122;BME280;48108;47.532;19.084;2023-05-11T09:26:25;100449.94;;;20.88;36.78
62122;BME280;48108;47.532;19.084;2023-05-11T09:29:30;100439.53;;;20.73;38.44
62122;BME280;48108;47.532;19.084;2023-05-11T09:32:48;100439.28;;;20.10;37.64
62122;BME280;48108;47.532;19.084;2023-05-11T09:35:52;100435.47;;;20.00;38.31
62122;BME280;48108;47.532;19.084;2023-05-11T09:39:01;100431.56;;;19.72;38.35
62122;BME280;48108;47.532;19.084;2023-05-11T09:42:30;100435.09;;;20.20;38.66
62122;BME280;48108;47.532;19.084;2023-05-11T09:45:37;100433.34;;;20.13;37.75
62122;BME280;48108;47.532;19.084;2023-05-11T09:48:41;100424.78;;;20.10;37.26
62122;BME280;48108;47.532;19.084;2023-05-11T09:51:47;100415.72;;;20.33;38.57
62122;BME280;48108;47.532;19.084;2023-05-11T09:54:50;100424.75;;;20.33;37.90
62122;BME280;48108;47.532;19.084;2023-05-11T09:57:55;100422.56;;;20.59;36.70
62122;BME280;48108;47.532;19.084;2023-05-11T10:00:58;100418.94;;;20.99;36.27
62122;BME280;48108;47.532;19.084;2023-05-11T10:04:02;100423.13;;;21.35;34.84
62122;BME280;48108;47.532;19.084;2023-05-11T10:07:29;100411.16;;;21.08;34.90
62122;BME280;48108;47.532;19.084;2023-05-11T10:10:33;100420.09;;;21.03;35.94
62122;BME280;48108;47.532;19.084;2023-05-11T10:13:36;100404.38;;;21.10;35.93
62122;BME280;48108;47.532;19.084;2023-05-11T10:16:41;100415.44;;;20.87;35.44
62122;BME280;48108;47.532;19.084;2023-05-11T10:19:46;100394.28;;;20.53;35.87
62122;BME280;48108;47.532;19.084;2023-05-11T10:22:53;100401.62;;;20.53;34.43
62122;BME280;48108;47.532;19.084;2023-05-11T10:25:56;100404.16;;;20.54;34.98
62122;BME280;48108;47.532;19.084;2023-05-11T10:29:00;100404.69;;;20.68;33.99
62122;BME280;48108;47.532;19.084;2023-05-11T10:32:07;100397.88;;;20.99;33.63
62122;BME280;48108;47.532;19.084;2023-05-11T10:35:10;100403.31;;;21.28;32.40
62122;BME280;48108;47.532;19.084;2023-05-11T10:38:13;100401.12;;;21.42;32.02
62122;BME280;48108;47.532;19.084;2023-05-11T10:55:35;100382.81;;;22.42;30.83
62122;BME280;48108;47.532;19.084;2023-05-11T11:02:30;100384.25;;;22.72;30.29
62122;BME280;48108;47.532;19.084;2023-05-11T11:05:34;100361.53;;;23.03;30.73
62122;BME280;48108;47.532;19.084;2023-05-11T11:08:54;100364.72;;;23.60;29.52
62122;BME280;48108;47.532;19.084;2023-05-11T11:12:08;100353.88;;;22.29;30.25
62122;BME280;48108;47.532;19.084;2023-05-11T11:15:11;100364.12;;;22.93;31.39
62122;BME280;48108;47.532;19.084;2023-05-11T11:21:39;100354.88;;;23.69;28.15
62122;BME280;48108;47.532;19.084;2023-05-11T11:24:44;100355.94;;;23.63;28.69
62122;BME280;48108;47.532;19.084;2023-05-11T11:37:29;100352.94;;;23.64;28.06
62122;BME280;48108;47.532;19.084;2023-05-11T11:40:39;100341.84;;;24.59;27.16
62122;BME280;48108;47.532;19.084;2023-05-11T11:43:53;100336.13;;;25.43;26.17
62122;BME280;48108;47.532;19.084;2023-05-11T11:47:22;100336.66;;;26.51;25.56
62122;BME280;48108;47.532;19.084;2023-05-11T11:50:26;100349.28;;;28.37;23.00
62122;BME280;48108;47.532;19.084;2023-05-11T11:56:39;100341.59;;;26.54;23.98
62122;BME280;48108;47.532;19.084;2023-05-11T11:59:45;100346.31;;;26.38;24.65
62122;BME280;48108;47.532;19.084;2023-05-11T12:02:50;100329.78;;;28.04;23.63
62122;BME280;48108;47.532;19.084;2023-05-11T12:05:58;100336.22;;;28.42;22.70
62122;BME280;48108;47.532;19.084;2023-05-11T12:09:03;100337.62;;;26.10;24.92
62122;BME280;48108;47.532;19.084;2023-05-11T12:12:07;100335.44;;;23.75;28.46
62122;BME280;48108;47.532;19.084;2023-05-11T12:15:30;100346.84;;;22.66;30.88
62122;BME280;48108;47.532;19.084;2023-05-11T12:18:36;100341.87;;;23.17;30.32
62122;BME280;48108;47.532;19.084;2023-05-11T12:21:44;100334.56;;;24.23;28.47
62122;BME280;48108;47.532;19.084;2023-05-11T12:24:47;100328.28;;;23.00;29.72
62122;BME280;48108;47.532;19.084;2023-05-11T12:27:55;100326.38;;;22.51;30.68
62122;BME280;48108;47.532;19.084;2023-05-11T12:31:03;100327.28;;;23.16;29.86
62122;BME280;48108;47.532;19.084;2023-05-11T12:34:12;100305.81;;;25.32;26.65
62122;BME280;48108;47.532;19.084;2023-05-11T12:37:16;100309.38;;;24.77;27.43
62122;BME280;48108;47.532;19.084;2023-05-11T12:40:18;100308.84;;;24.75;27.40
62122;BME280;48108;47.532;19.084;2023-05-11T12:43:21;100307.69;;;25.83;26.32
62122;BME280;48108;47.532;19.084;2023-05-11T12:46:24;100301.78;;;24.21;27.95
62122;BME280;48108;47.532;19.084;2023-05-11T12:49:27;100310.22;;;24.87;27.00
62122;BME280;48108;47.532;19.084;2023-05-11T12:52:30;100304.84;;;26.04;25.96
62122;BME280;48108;47.532;19.084;2023-05-11T12:55:33;100295.59;;;24.61;27.19
62122;BME280;48108;47.532;19.084;2023-05-11T12:58:37;100295.81;;;25.62;27.00
62122;BME280;48108;47.532;19.084;2023-05-11T13:01:40;100284.06;;;26.21;26.05
62122;BME280;48108;47.532;19.084;2023-05-11T13:04:44;100283.34;;;26.00;25.31
62122;BME280;48108;47.532;19.084;2023-05-11T13:08:04;100285.59;;;25.73;25.51
62122;BME280;48108;47.532;19.084;2023-05-11T13:14:29;100280.91;;;27.70;23.44
62122;BME280;48108;47.532;19.084;2023-05-11T13:17:37;100269.31;;;28.54;22.75
62122;BME280;48108;47.532;19.084;2023-05-11T13:20:40;100273.97;;;28.91;22.33
62122;BME280;48108;47.532;19.084;2023-05-11T13:23:48;100258.94;;;29.72;22.31
62122;BME280;48108;47.532;19.084;2023-05-11T13:26:52;100252.38;;;30.45;20.94
62122;BME280;48108;47.532;19.084;2023-05-11T13:29:55;100259.06;;;30.67;20.19
62122;BME280;48108;47.532;19.084;2023-05-11T13:32:58;100248.22;;;31.73;19.16
62122;BME280;48108;47.532;19.084;2023-05-11T13:36:01;100251.34;;;30.41;20.09
62122;BME280;48108;47.532;19.084;2023-05-11T13:39:04;100244.19;;;27.65;23.19
62122;BME280;48108;47.532;19.084;2023-05-11T13:42:07;100240.09;;;28.05;23.03
62122;BME280;48108;47.532;19.084;2023-05-11T13:45:10;100244.88;;;29.68;20.99
62122;BME280;48108;47.532;19.084;2023-05-11T13:48:13;100242.78;;;30.52;20.48
62122;BME280;48108;47.532;19.084;2023-05-11T13:51:16;100233.78;;;29.68;20.81
62122;BME280;48108;47.532;19.084;2023-05-11T13:54:18;100243.50;;;27.73;22.79
62122;BME280;48108;47.532;19.084;2023-05-11T13:57:22;100230.69;;;25.92;24.10
62122;BME280;48108;47.532;19.084;2023-05-11T14:00:25;100219.91;;;24.89;25.47
62122;BME280;48108;47.532;19.084;2023-05-11T14:03:28;100229.12;;;23.96;26.05
62122;BME280;48108;47.532;19.084;2023-05-11T14:06:33;100229.75;;;23.08;27.78
62122;BME280;48108;47.532;19.084;2023-05-11T14:09:36;100222.41;;;22.82;27.71
62122;BME280;48108;47.532;19.084;2023-05-11T14:12:39;100232.03;;;22.25;27.83
62122;BME280;48108;47.532;19.084;2023-05-11T14:15:42;100226.63;;;22.62;28.30
62122;BME280;48108;47.532;19.084;2023-05-11T14:18:45;100234.38;;;22.38;28.12
62122;BME280;48108;47.532;19.084;2023-05-11T14:21:52;100216.13;;;21.78;28.68
62122;BME280;48108;47.532;19.084;2023-05-11T14:24:54;100213.72;;;21.60;29.26
62122;BME280;48108;47.532;19.084;2023-05-11T14:27:57;100216.78;;;21.63;29.37
62122;BME280;48108;47.532;19.084;2023-05-11T14:31:00;100223.97;;;21.69;28.82
62122;BME280;48108;47.532;19.084;2023-05-11T14:34:04;100218.69;;;21.63;28.98
62122;BME280;48108;47.532;19.084;2023-05-11T14:37:07;100209.06;;;21.38;29.19
62122;BME280;48108;47.532;19.084;2023-05-11T14:40:10;100216.22;;;21.05;29.34
62122;BME280;48108;47.532;19.084;2023-05-11T14:43:14;100213.22;;;21.24;29.71
62122;BME280;48108;47.532;19.084;2023-05-11T14:46:17;100208.66;;;21.29;29.46
62122;BME280;48108;47.532;19.084;2023-05-11T14:49:19;100214.66;;;21.48;29.75
62122;BME280;48108;47.532;19.084;2023-05-11T14:52:22;100212.53;;;21.34;30.19
62122;BME280;48108;47.532;19.084;2023-05-11T14:55:25;100203.78;;;21.54;30.29
62122;BME280;48108;47.532;19.084;2023-05-11T14:58:28;100206.66;;;21.42;30.13
62122;BME280;48108;47.532;19.084;2023-05-11T15:01:31;100204.75;;;21.25;30.46
62122;BME280;48108;47.532;19.084;2023-05-11T15:04:34;100204.62;;;20.98;31.62
62122;BME280;48108;47.532;19.084;2023-05-11T15:07:36;100209.69;;;21.06;31.28
62122;BME280;48108;47.532;19.084;2023-05-11T15:10:40;100212.12;;;20.69;31.45
62122;BME280;48108;47.532;19.084;2023-05-11T15:13:43;100204.91;;;20.63;32.17
62122;BME280;48108;47.532;19.084;2023-05-11T15:16:49;100208.06;;;20.72;32.25
62122;BME280;48108;47.532;19.084;2023-05-11T15:19:52;100211.38;;;20.57;32.10
62122;BME280;48108;47.532;19.084;2023-05-11T15:22:55;100205.12;;;20.61;31.92
62122;BME280;48108;47.532;19.084;2023-05-11T15:25:57;100211.47;;;20.50;31.98
62122;BME280;48108;47.532;19.084;2023-05-11T15:29:01;100210.81;;;20.43;32.43
62122;BME280;48108;47.532;19.084;2023-05-11T15:32:04;100214.53;;;20.37;32.33
62122;BME280;48108;47.532;19.084;2023-05-11T15:35:08;100218.31;;;20.19;32.65
62122;BME280;48108;47.532;19.084;2023-05-11T15:38:10;100211.44;;;20.16;32.95
62122;BME280;48108;47.532;19.084;2023-05-11T15:41:13;100220.06;;;19.97;33.49
62122;BME280;48108;47.532;19.084;2023-05-11T15:44:16;100218.22;;;19.85;34.13
62122;BME280;48108;47.532;19.084;2023-05-11T15:47:19;100218.97;;;19.81;33.99
62122;BME280;48108;47.532;19.084;2023-05-11T15:50:22;100219.22;;;19.67;34.40
62122;BME280;48108;47.532;19.084;2023-05-11T15:53:25;100218.84;;;19.64;34.41
